sensor_id;sensor_type;location;lat;lon;timestamp;temperature;humidity
24636;DHT22;12772;49.794;10.024;2022-09-27T00:02:42;13.10;61.60
24636;DHT22;12772;49.794;10.024;2022-09-27T00:06:45;13.00;61.60
24636;DHT22;12772;49.794;10.024;2022-09-27T00:10:47;13.00;61.80
24636;DHT22;12772;49.794;10.024;2022-09-27T00:14:49;13.00;61.70
24636;DHT22;12772;49.794;10.024;2022-09-27T00:18:52;13.00;61.90
24636;DHT22;12772;49.794;10.024;2022-09-27T00:22:54;13.10;62.00
24636;DHT22;12772;49.794;10.024;2022-09-27T00:26:57;13.10;62.00
24636;DHT22;12772;49.794;10.024;2022-09-27T00:30:59;13.00;62.00
24636;DHT22;12772;49.794;10.024;2022-09-27T00:35:01;13.00;61.90
24636;DHT22;12772;49.794;10.024;2022-09-27T00:39:03;13.00;62.10
24636;DHT22;12772;49.794;10.024;2022-09-27T00:43:18;12.90;62.00
24636;DHT22;12772;49.794;10.024;2022-09-27T00:47:29;13.00;62.00
24636;DHT22;12772;49.794;10.024;2022-09-27T00:51:35;13.00;62.40
24636;DHT22;12772;49.794;10.024;2022-09-27T00:55:43;12.90;61.70
24636;DHT22;12772;49.794;10.024;2022-09-27T01:00:06;13.00;61.80
24636;DHT22;12772;49.794;10.024;2022-09-27T01:04:14;12.90;62.00
24636;DHT22;12772;49.794;10.024;2022-09-27T01:08:18;12.90;62.00
24636;DHT22;12772;49.794;10.024;2022-09-27T01:43:20;13.00;61.60
24636;DHT22;12772;49.794;10.024;2022-09-27T01:47:33;13.00;61.60
24636;DHT22;12772;49.794;10.024;2022-09-27T01:51:44;13.00;61.70
24636;DHT22;12772;49.794;10.024;2022-09-27T01:55:50;13.10;61.90
24636;DHT22;12772;49.794;10.024;2022-09-27T02:00:08;13.00;61.70
24636;DHT22;12772;49.794;10.024;2022-09-27T02:04:14;13.00;61.70
24636;DHT22;12772;49.794;10.024;2022-09-27T02:09:21;13.00;61.80
24636;DHT22;12772;49.794;10.024;2022-09-27T02:13:11;13.00;61.70
24636;DHT22;12772;49.794;10.024;2022-09-27T02:22:36;13.00;61.80
24636;DHT22;12772;49.794;10.024;2022-09-27T02:26:23;13.00;61.80
24636;DHT22;12772;49.794;10.024;2022-09-27T02:30:28;13.00;61.80
24636;DHT22;12772;49.794;10.024;2022-09-27T02:34:33;12.90;61.90
24636;DHT22;12772;49.794;10.024;2022-09-27T02:38:37;13.00;62.00
24636;DHT22;12772;49.794;10.024;2022-09-27T02:42:42;12.90;62.00
24636;DHT22;12772;49.794;10.024;2022-09-27T03:00:51;13.00;62.00
24636;DHT22;12772;49.794;10.024;2022-09-27T03:05:04;13.00;62.60
24636;DHT22;12772;49.794;10.024;2022-09-27T03:09:45;13.00;62.00
24636;DHT22;12772;49.794;10.024;2022-09-27T03:13:47;12.90;62.10
24636;DHT22;12772;49.794;10.024;2022-09-27T03:17:50;12.90;61.90
24636;DHT22;12772;49.794;10.024;2022-09-27T03:21:52;12.90;61.70
24636;DHT22;12772;49.794;10.024;2022-09-27T03:25:54;12.90;61.70
24636;DHT22;12772;49.794;10.024;2022-09-27T03:29:56;12.90;61.80
24636;DHT22;12772;49.794;10.024;2022-09-27T03:33:59;13.00;61.60
24636;DHT22;12772;49.794;10.024;2022-09-27T03:38:01;12.90;61.40
24636;DHT22;12772;49.794;10.024;2022-09-27T03:42:04;12.70;60.90
24636;DHT22;12772;49.794;10.024;2022-09-27T03:46:06;12.90;61.00
24636;DHT22;12772;49.794;10.024;2022-09-27T03:50:09;12.90;61.00
24636;DHT22;12772;49.794;10.024;2022-09-27T03:54:12;12.90;60.80
24636;DHT22;12772;49.794;10.024;2022-09-27T03:58:14;12.60;60.50
24636;DHT22;12772;49.794;10.024;2022-09-27T04:02:17;12.80;60.80
24636;DHT22;12772;49.794;10.024;2022-09-27T04:06:19;12.80;60.80
24636;DHT22;12772;49.794;10.024;2022-09-27T04:10:23;12.90;60.70
24636;DHT22;12772;49.794;10.024;2022-09-27T04:14:25;12.90;60.70
24636;DHT22;12772;49.794;10.024;2022-09-27T04:18:28;12.90;60.50
24636;DHT22;12772;49.794;10.024;2022-09-27T04:22:30;12.90;60.50
24636;DHT22;12772;49.794;10.024;2022-09-27T04:26:32;12.90;60.20
24636;DHT22;12772;49.794;10.024;2022-09-27T04:30:34;12.90;60.20
24636;DHT22;12772;49.794;10.024;2022-09-27T04:34:36;12.90;60.20
24636;DHT22;12772;49.794;10.024;2022-09-27T04:39:01;12.60;59.90
24636;DHT22;12772;49.794;10.024;2022-09-27T04:43:03;12.80;60.40
24636;DHT22;12772;49.794;10.024;2022-09-27T04:47:05;12.80;60.30
24636;DHT22;12772;49.794;10.024;2022-09-27T04:51:08;12.70;60.60
24636;DHT22;12772;49.794;10.024;2022-09-27T04:55:11;12.70;61.20
24636;DHT22;12772;49.794;10.024;2022-09-27T04:59:13;12.30;60.70
24636;DHT22;12772;49.794;10.024;2022-09-27T05:03:15;12.70;61.00
24636;DHT22;12772;49.794;10.024;2022-09-27T05:07:18;12.70;61.00
24636;DHT22;12772;49.794;10.024;2022-09-27T05:11:20;12.70;61.10
24636;DHT22;12772;49.794;10.024;2022-09-27T05:15:23;12.60;61.10
24636;DHT22;12772;49.794;10.024;2022-09-27T05:19:25;12.60;61.20
24636;DHT22;12772;49.794;10.024;2022-09-27T05:23:27;12.60;61.20
24636;DHT22;12772;49.794;10.024;2022-09-27T05:27:29;12.50;61.10
24636;DHT22;12772;49.794;10.024;2022-09-27T05:31:31;12.50;61.10
24636;DHT22;12772;49.794;10.024;2022-09-27T05:35:33;12.10;61.10
24636;DHT22;12772;49.794;10.024;2022-09-27T05:39:36;12.40;60.90
24636;DHT22;12772;49.794;10.024;2022-09-27T05:43:38;12.30;61.00
24636;DHT22;12772;49.794;10.024;2022-09-27T05:47:41;12.40;61.00
24636;DHT22;12772;49.794;10.024;2022-09-27T05:51:43;12.20;60.80
24636;DHT22;12772;49.794;10.024;2022-09-27T05:55:45;12.20;61.10
24636;DHT22;12772;49.794;10.024;2022-09-27T05:59:48;11.90;60.80
24636;DHT22;12772;49.794;10.024;2022-09-27T06:03:50;12.20;60.90
24636;DHT22;12772;49.794;10.024;2022-09-27T06:08:22;11.70;60.70
24636;DHT22;12772;49.794;10.024;2022-09-27T06:12:20;12.20;60.90
24636;DHT22;12772;49.794;10.024;2022-09-27T06:16:22;12.10;60.50
24636;DHT22;12772;49.794;10.024;2022-09-27T06:20:24;12.10;60.30
24636;DHT22;12772;49.794;10.024;2022-09-27T06:24:27;12.10;60.60
24636;DHT22;12772;49.794;10.024;2022-09-27T06:28:30;12.20;60.50
24636;DHT22;12772;49.794;10.024;2022-09-27T06:32:34;12.10;60.40
24636;DHT22;12772;49.794;10.024;2022-09-27T06:36:36;12.10;60.30
24636;DHT22;12772;49.794;10.024;2022-09-27T06:40:39;12.20;60.10
24636;DHT22;12772;49.794;10.024;2022-09-27T06:44:41;11.70;59.70
24636;DHT22;12772;49.794;10.024;2022-09-27T06:48:43;12.20;60.30
24636;DHT22;12772;49.794;10.024;2022-09-27T06:52:47;12.50;60.20
24636;DHT22;12772;49.794;10.024;2022-09-27T06:56:49;12.30;59.50
24636;DHT22;12772;49.794;10.024;2022-09-27T07:00:52;12.40;59.60
24636;DHT22;12772;49.794;10.024;2022-09-27T07:04:54;12.40;59.60
24636;DHT22;12772;49.794;10.024;2022-09-27T07:08:56;12.40;59.60
24636;DHT22;12772;49.794;10.024;2022-09-27T07:13:09;12.40;59.60
24636;DHT22;12772;49.794;10.024;2022-09-27T07:17:11;12.40;59.60
24636;DHT22;12772;49.794;10.024;2022-09-27T07:21:14;12.50;59.80
24636;DHT22;12772;49.794;10.024;2022-09-27T07:25:17;12.30;59.50
24636;DHT22;12772;49.794;10.024;2022-09-27T07:29:19;12.50;59.80
24636;DHT22;12772;49.794;10.024;2022-09-27T07:33:21;12.50;59.80
24636;DHT22;12772;49.794;10.024;2022-09-27T07:37:23;12.70;60.00
24636;DHT22;12772;49.794;10.024;2022-09-27T07:41:25;12.50;59.80
24636;DHT22;12772;49.794;10.024;2022-09-27T07:45:27;12.40;59.60
24636;DHT22;12772;49.794;10.024;2022-09-27T07:49:29;12.60;59.90
24636;DHT22;12772;49.794;10.024;2022-09-27T07:53:32;12.80;60.00
24636;DHT22;12772;49.794;10.024;2022-09-27T07:57:34;12.80;59.70
24636;DHT22;12772;49.794;10.024;2022-09-27T08:01:36;12.60;58.80
24636;DHT22;12772;49.794;10.024;2022-09-27T08:05:38;12.60;59.00
24636;DHT22;12772;49.794;10.024;2022-09-27T08:09:41;12.60;58.80
24636;DHT22;12772;49.794;10.024;2022-09-27T08:13:44;12.70;59.10
24636;DHT22;12772;49.794;10.024;2022-09-27T08:17:47;12.70;58.60
24636;DHT22;12772;49.794;10.024;2022-09-27T08:21:51;12.80;59.00
24636;DHT22;12772;49.794;10.024;2022-09-27T08:25:55;12.80;58.90
24636;DHT22;12772;49.794;10.024;2022-09-27T08:29:58;12.90;58.60
24636;DHT22;12772;49.794;10.024;2022-09-27T08:34:00;13.00;58.10
24636;DHT22;12772;49.794;10.024;2022-09-27T08:38:03;13.10;57.70
24636;DHT22;12772;49.794;10.024;2022-09-27T08:42:34;13.10;57.00
24636;DHT22;12772;49.794;10.024;2022-09-27T08:47:08;13.10;56.30
24636;DHT22;12772;49.794;10.024;2022-09-27T08:51:13;13.10;56.30
24636;DHT22;12772;49.794;10.024;2022-09-27T08:55:30;13.10;56.50
24636;DHT22;12772;49.794;10.024;2022-09-27T09:00:00;13.20;56.70
24636;DHT22;12772;49.794;10.024;2022-09-27T09:03:59;13.20;56.10
24636;DHT22;12772;49.794;10.024;2022-09-27T09:21:24;13.40;55.50
24636;DHT22;12772;49.794;10.024;2022-09-27T09:30:44;13.20;54.50
24636;DHT22;12772;49.794;10.024;2022-09-27T09:34:58;13.20;54.80
24636;DHT22;12772;49.794;10.024;2022-09-27T09:39:10;13.20;54.40
24636;DHT22;12772;49.794;10.024;2022-09-27T09:43:24;13.20;54.10
24636;DHT22;12772;49.794;10.024;2022-09-27T09:47:44;13.20;54.30
24636;DHT22;12772;49.794;10.024;2022-09-27T09:51:53;13.20;54.30
24636;DHT22;12772;49.794;10.024;2022-09-27T09:56:22;13.20;54.00
24636;DHT22;12772;49.794;10.024;2022-09-27T10:00:26;13.30;54.10
24636;DHT22;12772;49.794;10.024;2022-09-27T10:04:28;13.40;53.70
24636;DHT22;12772;49.794;10.024;2022-09-27T10:08:32;13.50;53.60
24636;DHT22;12772;49.794;10.024;2022-09-27T10:12:35;13.70;52.70
24636;DHT22;12772;49.794;10.024;2022-09-27T10:16:38;13.70;52.30
24636;DHT22;12772;49.794;10.024;2022-09-27T10:20:49;13.80;51.60
24636;DHT22;12772;49.794;10.024;2022-09-27T10:25:00;13.90;51.10
24636;DHT22;12772;49.794;10.024;2022-09-27T10:29:29;13.80;50.50
24636;DHT22;12772;49.794;10.024;2022-09-27T10:33:32;13.80;49.30
24636;DHT22;12772;49.794;10.024;2022-09-27T10:37:35;13.80;49.40
24636;DHT22;12772;49.794;10.024;2022-09-27T10:41:39;13.90;49.00
24636;DHT22;12772;49.794;10.024;2022-09-27T10:45:42;13.80;48.40
24636;DHT22;12772;49.794;10.024;2022-09-27T10:49:44;13.90;49.40
24636;DHT22;12772;49.794;10.024;2022-09-27T10:53:47;14.00;49.10
24636;DHT22;12772;49.794;10.024;2022-09-27T10:57:52;14.00;49.30
24636;DHT22;12772;49.794;10.024;2022-09-27T11:01:55;14.10;49.50
24636;DHT22;12772;49.794;10.024;2022-09-27T11:05:59;14.20;49.70
24636;DHT22;12772;49.794;10.024;2022-09-27T11:10:01;14.30;49.60
24636;DHT22;12772;49.794;10.024;2022-09-27T11:14:21;14.40;48.70
24636;DHT22;12772;49.794;10.024;2022-09-27T11:32:04;15.30;47.90
24636;DHT22;12772;49.794;10.024;2022-09-27T11:36:24;15.20;46.90
24636;DHT22;12772;49.794;10.024;2022-09-27T11:49:49;15.30;46.30
24636;DHT22;12772;49.794;10.024;2022-09-27T11:54:26;15.30;46.10
24636;DHT22;12772;49.794;10.024;2022-09-27T11:58:53;15.30;45.80
24636;DHT22;12772;49.794;10.024;2022-09-27T12:12:25;15.10;45.80
24636;DHT22;12772;49.794;10.024;2022-09-27T12:16:30;14.80;46.40
24636;DHT22;12772;49.794;10.024;2022-09-27T12:20:35;14.60;47.20
24636;DHT22;12772;49.794;10.024;2022-09-27T12:24:39;14.40;48.70
24636;DHT22;12772;49.794;10.024;2022-09-27T12:28:50;14.30;48.60
24636;DHT22;12772;49.794;10.024;2022-09-27T12:33:03;14.20;48.50
24636;DHT22;12772;49.794;10.024;2022-09-27T12:37:13;14.10;49.00
24636;DHT22;12772;49.794;10.024;2022-09-27T12:41:20;14.10;49.50
24636;DHT22;12772;49.794;10.024;2022-09-27T12:50:02;14.00;50.20
24636;DHT22;12772;49.794;10.024;2022-09-27T12:54:27;13.90;50.60
24636;DHT22;12772;49.794;10.024;2022-09-27T12:59:03;13.80;51.20
24636;DHT22;12772;49.794;10.024;2022-09-27T13:12:16;13.90;52.30
24636;DHT22;12772;49.794;10.024;2022-09-27T13:16:19;13.90;52.30
24636;DHT22;12772;49.794;10.024;2022-09-27T13:20:31;14.00;51.70
24636;DHT22;12772;49.794;10.024;2022-09-27T13:41:24;14.20;50.50
24636;DHT22;12772;49.794;10.024;2022-09-27T13:49:45;14.30;50.10
24636;DHT22;12772;49.794;10.024;2022-09-27T13:54:04;14.30;50.50
24636;DHT22;12772;49.794;10.024;2022-09-27T14:03:01;14.50;50.50
24636;DHT22;12772;49.794;10.024;2022-09-27T14:07:33;14.50;49.90
24636;DHT22;12772;49.794;10.024;2022-09-27T14:11:39;14.50;49.30
24636;DHT22;12772;49.794;10.024;2022-09-27T14:15:43;14.50;48.90
24636;DHT22;12772;49.794;10.024;2022-09-27T14:19:46;14.40;48.70
24636;DHT22;12772;49.794;10.024;2022-09-27T14:23:49;14.30;48.30
24636;DHT22;12772;49.794;10.024;2022-09-27T14:27:51;14.30;48.60
24636;DHT22;12772;49.794;10.024;2022-09-27T14:32:03;14.30;48.60
24636;DHT22;12772;49.794;10.024;2022-09-27T14:36:06;14.30;48.60
24636;DHT22;12772;49.794;10.024;2022-09-27T14:40:27;14.30;48.60
24636;DHT22;12772;49.794;10.024;2022-09-27T14:44:29;14.30;48.60
24636;DHT22;12772;49.794;10.024;2022-09-27T14:48:34;14.20;48.30
24636;DHT22;12772;49.794;10.024;2022-09-27T14:52:37;14.10;48.30
24636;DHT22;12772;49.794;10.024;2022-09-27T14:56:40;14.10;48.30
24636;DHT22;12772;49.794;10.024;2022-09-27T15:00:46;14.10;48.40
24636;DHT22;12772;49.794;10.024;2022-09-27T15:04:49;14.20;48.50
24636;DHT22;12772;49.794;10.024;2022-09-27T15:08:52;14.20;48.50
24636;DHT22;12772;49.794;10.024;2022-09-27T15:12:55;14.20;48.50
24636;DHT22;12772;49.794;10.024;2022-09-27T15:16:59;14.20;48.50
24636;DHT22;12772;49.794;10.024;2022-09-27T15:21:07;14.20;47.40
24636;DHT22;12772;49.794;10.024;2022-09-27T15:25:22;14.20;46.70
24636;DHT22;12772;49.794;10.024;2022-09-27T15:29:34;14.20;46.70
24636;DHT22;12772;49.794;10.024;2022-09-27T15:33:36;14.20;46.70
24636;DHT22;12772;49.794;10.024;2022-09-27T15:37:38;14.20;46.80
24636;DHT22;12772;49.794;10.024;2022-09-27T15:42:13;14.10;46.60
24636;DHT22;12772;49.794;10.024;2022-09-27T15:54:30;14.10;47.70
24636;DHT22;12772;49.794;10.024;2022-09-27T15:58:35;14.10;48.40
24636;DHT22;12772;49.794;10.024;2022-09-27T16:02:37;14.00;48.30
24636;DHT22;12772;49.794;10.024;2022-09-27T16:06:39;14.00;48.30
24636;DHT22;12772;49.794;10.024;2022-09-27T16:10:47;13.90;48.20
24636;DHT22;12772;49.794;10.024;2022-09-27T16:14:50;13.80;48.10
24636;DHT22;12772;49.794;10.024;2022-09-27T16:18:52;13.80;48.10
24636;DHT22;12772;49.794;10.024;2022-09-27T16:22:56;13.70;48.30
24636;DHT22;12772;49.794;10.024;2022-09-27T16:26:58;13.70;48.90
24636;DHT22;12772;49.794;10.024;2022-09-27T16:31:05;13.70;49.70
24636;DHT22;12772;49.794;10.024;2022-09-27T16:35:08;13.60;49.10
24636;DHT22;12772;49.794;10.024;2022-09-27T16:39:12;13.60;49.70
24636;DHT22;12772;49.794;10.024;2022-09-27T16:43:14;13.50;50.00
24636;DHT22;12772;49.794;10.024;2022-09-27T16:47:16;13.50;50.20
24636;DHT22;12772;49.794;10.024;2022-09-27T16:51:20;13.40;50.50
24636;DHT22;12772;49.794;10.024;2022-09-27T16:55:45;13.40;50.60
24636;DHT22;12772;49.794;10.024;2022-09-27T16:59:47;13.30;50.60
24636;DHT22;12772;49.794;10.024;2022-09-27T17:03:50;13.20;50.20
24636;DHT22;12772;49.794;10.024;2022-09-27T17:07:53;13.20;50.20
24636;DHT22;12772;49.794;10.024;2022-09-27T17:11:55;13.20;50.20
24636;DHT22;12772;49.794;10.024;2022-09-27T17:15:57;13.10;50.00
24636;DHT22;12772;49.794;10.024;2022-09-27T17:19:59;13.10;50.10
24636;DHT22;12772;49.794;10.024;2022-09-27T17:24:02;13.00;49.60
24636;DHT22;12772;49.794;10.024;2022-09-27T17:28:04;13.00;49.90
24636;DHT22;12772;49.794;10.024;2022-09-27T17:32:06;12.90;50.10
24636;DHT22;12772;49.794;10.024;2022-09-27T17:36:12;12.90;50.10
24636;DHT22;12772;49.794;10.024;2022-09-27T17:40:15;12.90;50.30
24636;DHT22;12772;49.794;10.024;2022-09-27T17:44:18;12.80;50.30
24636;DHT22;12772;49.794;10.024;2022-09-27T17:48:20;12.80;50.40
24636;DHT22;12772;49.794;10.024;2022-09-27T17:52:39;12.70;50.70
24636;DHT22;12772;49.794;10.024;2022-09-27T17:56:42;12.40;50.70
24636;DHT22;12772;49.794;10.024;2022-09-27T18:00:45;12.60;51.20
24636;DHT22;12772;49.794;10.024;2022-09-27T18:04:47;12.60;52.10
24636;DHT22;12772;49.794;10.024;2022-09-27T18:08:49;12.30;52.50
24636;DHT22;12772;49.794;10.024;2022-09-27T18:12:51;12.00;52.90
24636;DHT22;12772;49.794;10.024;2022-09-27T18:16:53;12.40;53.70
24636;DHT22;12772;49.794;10.024;2022-09-27T18:21:02;12.40;53.60
24636;DHT22;12772;49.794;10.024;2022-09-27T18:25:05;11.90;52.90
24636;DHT22;12772;49.794;10.024;2022-09-27T18:29:11;12.30;53.60
24636;DHT22;12772;49.794;10.024;2022-09-27T18:33:13;12.30;53.40
24636;DHT22;12772;49.794;10.024;2022-09-27T18:37:15;12.30;53.10
24636;DHT22;12772;49.794;10.024;2022-09-27T18:41:18;11.90;52.10
24636;DHT22;12772;49.794;10.024;2022-09-27T18:45:21;12.20;52.10
24636;DHT22;12772;49.794;10.024;2022-09-27T18:49:23;12.30;52.20
24636;DHT22;12772;49.794;10.024;2022-09-27T18:53:27;12.30;52.30
24636;DHT22;12772;49.794;10.024;2022-09-27T18:57:29;12.30;52.20
24636;DHT22;12772;49.794;10.024;2022-09-27T19:01:33;12.20;51.70
24636;DHT22;12772;49.794;10.024;2022-09-27T19:05:38;12.00;51.60
24636;DHT22;12772;49.794;10.024;2022-09-27T19:09:40;12.20;51.80
24636;DHT22;12772;49.794;10.024;2022-09-27T19:13:43;12.20;51.80
24636;DHT22;12772;49.794;10.024;2022-09-27T19:17:49;11.90;51.70
24636;DHT22;12772;49.794;10.024;2022-09-27T19:21:51;12.20;52.10
24636;DHT22;12772;49.794;10.024;2022-09-27T19:25:57;12.20;52.20
24636;DHT22;12772;49.794;10.024;2022-09-27T19:30:00;12.20;52.20
24636;DHT22;12772;49.794;10.024;2022-09-27T19:34:03;12.10;53.10
24636;DHT22;12772;49.794;10.024;2022-09-27T19:38:05;12.10;52.40
24636;DHT22;12772;49.794;10.024;2022-09-27T19:42:07;12.10;52.60
24636;DHT22;12772;49.794;10.024;2022-09-27T19:46:14;11.80;52.40
24636;DHT22;12772;49.794;10.024;2022-09-27T19:50:16;12.10;53.00
24636;DHT22;12772;49.794;10.024;2022-09-27T19:54:18;11.90;52.90
24636;DHT22;12772;49.794;10.024;2022-09-27T19:58:20;12.00;53.40
24636;DHT22;12772;49.794;10.024;2022-09-27T20:02:22;12.10;53.80
24636;DHT22;12772;49.794;10.024;2022-09-27T20:06:24;12.10;53.90
24636;DHT22;12772;49.794;10.024;2022-09-27T20:10:26;11.80;53.50
24636;DHT22;12772;49.794;10.024;2022-09-27T20:14:29;11.90;54.00
24636;DHT22;12772;49.794;10.024;2022-09-27T20:18:31;12.30;54.70
24636;DHT22;12772;49.794;10.024;2022-09-27T20:22:33;12.00;54.40
24636;DHT22;12772;49.794;10.024;2022-09-27T20:26:36;11.80;54.30
24636;DHT22;12772;49.794;10.024;2022-09-27T20:30:38;11.90;54.70
24636;DHT22;12772;49.794;10.024;2022-09-27T20:34:41;12.10;55.00
24636;DHT22;12772;49.794;10.024;2022-09-27T20:38:47;12.10;55.10
24636;DHT22;12772;49.794;10.024;2022-09-27T20:42:49;11.90;54.90
24636;DHT22;12772;49.794;10.024;2022-09-27T20:46:51;11.80;54.70
24636;DHT22;12772;49.794;10.024;2022-09-27T20:50:57;11.50;54.50
24636;DHT22;12772;49.794;10.024;2022-09-27T20:54:59;11.90;55.10
24636;DHT22;12772;49.794;10.024;2022-09-27T20:59:04;11.50;54.70
24636;DHT22;12772;49.794;10.024;2022-09-27T21:03:06;11.80;55.20
24636;DHT22;12772;49.794;10.024;2022-09-27T21:07:08;11.50;54.90
24636;DHT22;12772;49.794;10.024;2022-09-27T21:11:12;11.80;55.20
24636;DHT22;12772;49.794;10.024;2022-09-27T21:15:14;11.50;54.80
24636;DHT22;12772;49.794;10.024;2022-09-27T21:19:16;11.80;55.20
24636;DHT22;12772;49.794;10.024;2022-09-27T21:23:18;11.50;54.60
24636;DHT22;12772;49.794;10.024;2022-09-27T21:27:21;11.50;54.30
24636;DHT22;12772;49.794;10.024;2022-09-27T21:31:25;11.90;54.70
24636;DHT22;12772;49.794;10.024;2022-09-27T21:35:27;11.40;54.00
24636;DHT22;12772;49.794;10.024;2022-09-27T21:39:29;11.70;54.30
24636;DHT22;12772;49.794;10.024;2022-09-27T21:43:33;11.50;54.20
24636;DHT22;12772;49.794;10.024;2022-09-27T21:47:35;11.30;54.00
24636;DHT22;12772;49.794;10.024;2022-09-27T21:51:39;11.60;54.40
24636;DHT22;12772;49.794;10.024;2022-09-27T21:55:41;11.60;54.70
24636;DHT22;12772;49.794;10.024;2022-09-27T21:59:43;11.50;54.60
24636;DHT22;12772;49.794;10.024;2022-09-27T22:03:45;11.50;54.80
24636;DHT22;12772;49.794;10.024;2022-09-27T22:07:48;11.00;54.50
24636;DHT22;12772;49.794;10.024;2022-09-27T22:11:50;11.40;55.10
24636;DHT22;12772;49.794;10.024;2022-09-27T22:15:53;11.00;54.50
24636;DHT22;12772;49.794;10.024;2022-09-27T22:19:55;11.40;54.80
24636;DHT22;12772;49.794;10.024;2022-09-27T22:23:59;11.30;54.80
24636;DHT22;12772;49.794;10.024;2022-09-27T22:28:01;11.30;55.00
24636;DHT22;12772;49.794;10.024;2022-09-27T22:32:03;11.30;55.20
24636;DHT22;12772;49.794;10.024;2022-09-27T22:36:05;11.20;55.20
24636;DHT22;12772;49.794;10.024;2022-09-27T22:40:08;11.20;55.40
24636;DHT22;12772;49.794;10.024;2022-09-27T22:44:10;11.30;55.60
24636;DHT22;12772;49.794;10.024;2022-09-27T22:48:12;10.80;55.20
24636;DHT22;12772;49.794;10.024;2022-09-27T22:52:14;10.70;55.10
24636;DHT22;12772;49.794;10.024;2022-09-27T22:56:18;10.80;55.50
24636;DHT22;12772;49.794;10.024;2022-09-27T23:00:20;10.70;55.60
24636;DHT22;12772;49.794;10.024;2022-09-27T23:04:22;11.10;56.00
24636;DHT22;12772;49.794;10.024;2022-09-27T23:08:24;10.70;55.70
24636;DHT22;12772;49.794;10.024;2022-09-27T23:12:26;10.60;55.60
24636;DHT22;12772;49.794;10.024;2022-09-27T23:16:28;11.10;56.10
24636;DHT22;12772;49.794;10.024;2022-09-27T23:20:30;10.90;56.00
24636;DHT22;12772;49.794;10.024;2022-09-27T23:24:33;10.70;55.50
24636;DHT22;12772;49.794;10.024;2022-09-27T23:28:35;11.20;56.20
24636;DHT22;12772;49.794;10.024;2022-09-27T23:32:38;11.20;56.10
24636;DHT22;12772;49.794;10.024;2022-09-27T23:36:39;10.80;55.70
24636;DHT22;12772;49.794;10.024;2022-09-27T23:40:42;11.10;56.00
24636;DHT22;12772;49.794;10.024;2022-09-27T23:44:44;11.20;56.20
24636;DHT22;12772;49.794;10.024;2022-09-27T23:48:46;10.70;55.80
24636;DHT22;12772;49.794;10.024;2022-09-27T23:52:48;10.90;56.20
24636;DHT22;12772;49.794;10.024;2022-09-27T23:56:50;11.20;56.40
